Time;durP1;ratioP1;P1;durP2;ratioP2;P2;SDS_P1;SDS_P2;PMS_P1;PMS_P2;Temp;Humidity;BMP_temperature;BMP_pressure;BME280_temperature;BME280_humidity;BME280_pressure;Samples;Min_cycle;Max_cycle;Signal;HPM_P1;HPM_P2
2023/08/15 00:01:49;;;;;;;13.80;8.80;;;;;;;23.61;76.73;100930.26;105101;1270;99244;-81
2023/08/15 00:04:35;;;;;;;9.30;8.00;;;;;;;23.55;76.77;100935.36;104955;1273;99085;-81
2023/08/15 00:07:21;;;;;;;8.90;8.00;;;;;;;23.51;76.97;100935.65;105515;1270;98069;-80
2023/08/15 00:10:06;;;;;;;12.70;8.10;;;;;;;23.45;76.90;100935.13;105699;1270;97891;-80
2023/08/15 00:12:52;;;;;;;17.10;9.10;;;;;;;23.40;76.78;100935.27;105856;1270;103024;-80
2023/08/15 00:15:37;;;;;;;17.20;8.40;;;;;;;23.35;76.85;100933.27;106047;1273;99248;-80
2023/08/15 00:18:23;;;;;;;9.30;8.10;;;;;;;23.31;77.18;100938.67;105905;1276;97994;-80
2023/08/15 00:21:08;;;;;;;9.90;7.70;;;;;;;23.27;76.92;100937.20;105961;1270;97722;-79
2023/08/15 00:23:54;;;;;;;9.10;7.60;;;;;;;23.23;77.14;100931.98;106026;1273;97874;-81
2023/08/15 00:26:39;;;;;;;14.80;8.10;;;;;;;23.18;77.37;100933.09;105731;1270;101365;-80
2023/08/15 00:29:25;;;;;;;10.70;8.00;;;;;;;23.13;77.76;100938.23;105636;1273;99186;-79
2023/08/15 00:32:11;;;;;;;11.10;8.80;;;;;;;23.07;77.80;100935.39;105797;1270;98505;-81
2023/08/15 00:34:56;;;;;;;14.40;10.30;;;;;;;23.01;78.00;100936.98;105600;1269;98016;-80
2023/08/15 00:37:42;;;;;;;19.30;12.00;;;;;;;22.96;78.69;100938.36;105731;1273;98423;-80
2023/08/15 00:40:28;;;;;;;17.70;12.90;;;;;;;22.92;78.89;100944.02;105596;1272;101430;-80
2023/08/15 00:43:17;;;;;;;20.50;13.50;;;;;;;22.88;78.98;100942.95;105705;1273;99089;-80
2023/08/15 00:46:05;;;;;;;20.00;13.30;;;;;;;22.83;78.94;100940.98;105580;1269;97881;-79
2023/08/15 00:48:52;;;;;;;20.30;14.30;;;;;;;22.78;78.97;100936.19;105600;1268;97990;-79
2023/08/15 00:51:38;;;;;;;24.80;15.70;;;;;;;22.74;79.12;100937.35;104873;1274;98452;-79
2023/08/15 00:54:24;;;;;;;21.40;16.30;;;;;;;22.70;79.46;100930.70;105002;1270;102614;-80
2023/08/15 00:57:12;;;;;;;17.80;12.70;;;;;;;22.67;79.92;100926.19;105161;1274;99230;-80
2023/08/15 00:59:57;;;;;;;15.40;12.10;;;;;;;22.65;79.89;100922.06;104991;1270;98629;-81
2023/08/15 01:02:43;;;;;;;13.00;11.10;;;;;;;22.61;80.15;100920.84;104847;1273;98010;-79
2023/08/15 01:05:29;;;;;;;13.20;11.40;;;;;;;22.58;80.41;100922.30;104857;1270;97988;-80
2023/08/15 01:08:15;;;;;;;13.60;10.50;;;;;;;22.56;80.70;100925.39;104989;1272;101974;-80
2023/08/15 01:11:01;;;;;;;12.90;11.40;;;;;;;22.54;80.61;100928.54;104898;1270;99668;-80
2023/08/15 01:13:59;;;;;;;15.20;10.40;;;;;;;22.53;80.80;100923.08;104993;1273;99685;-81
2023/08/15 01:16:48;;;;;;;11.50;10.20;;;;;;;22.50;81.04;100919.27;106376;1269;96203;-81
2023/08/15 01:19:48;;;;;;;10.90;9.50;;;;;;;22.46;80.94;100923.39;105696;1270;97987;-81
2023/08/15 01:22:36;;;;;;;12.90;10.10;;;;;;;22.41;81.22;100929.16;105246;1268;101471;-79
2023/08/15 01:25:22;;;;;;;18.10;10.70;;;;;;;22.35;81.44;100935.81;105398;1273;100460;-79
2023/08/15 01:28:15;;;;;;;10.70;9.50;;;;;;;22.28;81.65;100939.83;104845;1269;98379;-79
2023/08/15 01:31:10;;;;;;;10.70;9.30;;;;;;;22.21;81.60;100942.63;104825;1270;99099;-79
2023/08/15 01:34:09;;;;;;;13.10;9.70;;;;;;;22.14;81.77;100943.41;104923;1272;98552;-82
2023/08/15 01:37:00;;;;;;;11.60;9.90;;;;;;;22.09;81.89;100939.11;105909;1273;101460;-80
2023/08/15 01:39:50;;;;;;;11.70;8.80;;;;;;;22.06;81.96;100938.62;104996;1270;99231;-80
2023/08/15 01:42:40;;;;;;;11.60;9.30;;;;;;;22.03;82.17;100936.73;105061;1270;98000;-80
2023/08/15 01:45:26;;;;;;;11.20;9.20;;;;;;;22.01;82.00;100938.79;105242;1269;98517;-80
2023/08/15 01:48:14;;;;;;;13.00;10.00;;;;;;;21.99;82.23;100942.41;105038;1270;98078;-80
2023/08/15 01:51:00;;;;;;;13.50;10.30;;;;;;;21.97;82.42;100938.84;105998;1270;102689;-80
2023/08/15 01:53:45;;;;;;;11.70;10.00;;;;;;;21.97;82.24;100939.44;105105;1272;99395;-79
2023/08/15 01:56:31;;;;;;;13.10;10.60;;;;;;;21.94;82.44;100939.24;105074;1271;98581;-80
2023/08/15 01:59:17;;;;;;;16.30;12.30;;;;;;;21.91;82.85;100940.17;104986;1273;98129;-81
2023/08/15 02:02:06;;;;;;;22.10;14.30;;;;;;;21.87;82.91;100940.35;105063;1275;99726;-80
2023/08/15 02:04:52;;;;;;;22.90;14.90;;;;;;;21.85;83.11;100942.60;105049;1272;101359;-80
2023/08/15 02:07:37;;;;;;;14.30;12.50;;;;;;;21.82;83.50;100943.42;105162;1270;99926;-80
2023/08/15 02:10:24;;;;;;;13.30;11.90;;;;;;;21.79;84.10;100945.00;105658;1270;98394;-81
2023/08/15 02:13:09;;;;;;;16.30;12.50;;;;;;;21.75;84.04;100944.40;105697;1270;98012;-80
2023/08/15 02:15:55;;;;;;;14.60;11.80;;;;;;;21.70;84.21;100943.82;104871;1270;98552;-80
2023/08/15 02:18:40;;;;;;;14.60;11.70;;;;;;;21.67;84.15;100943.03;105276;1270;101518;-79
2023/08/15 02:21:25;;;;;;;13.00;11.10;;;;;;;21.64;84.28;100943.48;105687;1270;100519;-81
2023/08/15 02:24:11;;;;;;;12.30;11.00;;;;;;;21.62;84.28;100943.23;104949;1270;98038;-80
2023/08/15 02:26:56;;;;;;;15.20;11.50;;;;;;;21.59;84.10;100942.86;105611;1273;97993;-79
2023/08/15 02:29:42;;;;;;;12.30;10.60;;;;;;;21.57;84.14;100942.29;105480;1271;98556;-81
2023/08/15 02:32:27;;;;;;;13.20;11.30;;;;;;;21.56;83.83;100944.23;105777;1270;102752;-80
2023/08/15 02:35:13;;;;;;;13.20;11.70;;;;;;;21.54;84.04;100945.17;105618;1273;99329;-81
2023/08/15 02:37:58;;;;;;;13.00;11.10;;;;;;;21.53;84.24;100945.38;105614;1272;99017;-80
2023/08/15 02:40:44;;;;;;;14.00;11.30;;;;;;;21.52;84.26;100945.31;105658;1270;97991;-80
2023/08/15 02:43:30;;;;;;;12.20;11.10;;;;;;;21.50;84.04;100944.58;105077;1270;98470;-81
2023/08/15 02:46:18;;;;;;;11.00;10.00;;;;;;;21.46;84.20;100940.16;105311;1270;101339;-79
2023/08/15 02:49:04;;;;;;;14.10;10.60;;;;;;;21.44;84.48;100940.29;105258;1272;99158;-80
2023/08/15 02:51:49;;;;;;;12.80;10.80;;;;;;;21.41;84.61;100942.71;105069;1271;97921;-80
2023/08/15 02:54:34;;;;;;;14.20;10.40;;;;;;;21.40;84.97;100945.53;105126;1270;98081;-80
2023/08/15 02:57:20;;;;;;;13.20;11.00;;;;;;;21.39;84.84;100946.86;105106;1271;98519;-80
2023/08/15 03:00:07;;;;;;;12.40;9.80;;;;;;;21.34;84.65;100946.02;105285;1270;101425;-81
2023/08/15 03:02:53;;;;;;;11.50;10.30;;;;;;;21.28;84.88;100949.80;106052;1269;99114;-80
2023/08/15 03:05:39;;;;;;;12.80;10.60;;;;;;;21.23;84.76;100951.89;105202;1271;97930;-81
2023/08/15 03:08:24;;;;;;;11.80;9.40;;;;;;;21.21;84.63;100952.73;105211;1270;97995;-82
2023/08/15 03:11:10;;;;;;;11.20;9.60;;;;;;;21.20;84.84;100954.09;105215;1272;97849;-80
2023/08/15 03:13:55;;;;;;;14.50;10.50;;;;;;;21.17;85.00;100954.73;105688;1271;101538;-81
2023/08/15 03:16:41;;;;;;;14.00;9.90;;;;;;;21.14;84.97;100958.16;105638;1270;99182;-80
2023/08/15 03:19:27;;;;;;;10.90;9.80;;;;;;;21.12;85.39;100960.46;105624;1270;98492;-80
2023/08/15 03:22:12;;;;;;;11.50;10.10;;;;;;;21.10;85.23;100963.11;105711;1273;97763;-80
2023/08/15 03:24:58;;;;;;;11.80;9.60;;;;;;;21.08;85.21;100963.96;105014;1276;99693;-82
2023/08/15 03:27:44;;;;;;;11.00;9.90;;;;;;;21.06;85.08;100960.86;105084;1270;101456;-81
2023/08/15 03:30:30;;;;;;;12.40;11.00;;;;;;;21.03;85.35;100961.48;105708;1272;99905;-81
2023/08/15 03:33:16;;;;;;;13.10;10.20;;;;;;;21.01;85.41;100966.04;105697;1270;97991;-80
2023/08/15 03:36:02;;;;;;;11.00;9.90;;;;;;;20.97;85.43;100969.83;105488;1276;97988;-81
2023/08/15 03:38:49;;;;;;;12.50;10.70;;;;;;;20.94;85.75;100966.33;105595;1270;98530;-80
2023/08/15 03:41:35;;;;;;;14.20;10.00;;;;;;;20.90;86.23;100965.51;105605;1270;101474;-81
2023/08/15 03:44:21;;;;;;;11.40;10.30;;;;;;;20.87;86.09;100969.55;105700;1270;100438;-81
2023/08/15 03:47:06;;;;;;;13.60;10.50;;;;;;;20.84;86.07;100972.31;105680;1270;97994;-82
2023/08/15 03:49:51;;;;;;;12.40;11.20;;;;;;;20.80;86.35;100974.70;105695;1270;98593;-80
2023/08/15 03:52:37;;;;;;;14.50;12.10;;;;;;;20.77;86.72;100973.51;105758;1269;97916;-81
2023/08/15 03:55:22;;;;;;;13.30;12.10;;;;;;;20.74;86.58;100973.73;105767;1270;101421;-82
2023/08/15 03:58:08;;;;;;;12.80;11.50;;;;;;;20.70;86.56;100979.40;105638;1273;99208;-80
2023/08/15 04:00:53;;;;;;;14.60;12.30;;;;;;;20.64;86.66;100980.52;105702;1273;99077;-80
2023/08/15 04:03:39;;;;;;;14.60;13.00;;;;;;;20.59;86.87;100985.64;105816;1270;97921;-79
2023/08/15 04:06:24;;;;;;;14.10;12.70;;;;;;;20.56;87.08;100992.88;105672;1271;97800;-81
2023/08/15 04:09:10;;;;;;;15.30;13.20;;;;;;;20.55;87.07;100994.86;105724;1271;101383;-81
2023/08/15 04:11:56;;;;;;;16.00;14.30;;;;;;;20.55;87.29;100993.51;105720;1268;100824;-81
2023/08/15 04:14:41;;;;;;;16.60;13.70;;;;;;;20.55;87.59;100998.08;105602;1271;99012;-82
2023/08/15 04:17:27;;;;;;;13.50;12.10;;;;;;;20.54;88.29;101001.98;105712;1273;97975;-80
2023/08/15 04:20:12;;;;;;;15.20;13.20;;;;;;;20.52;88.17;101001.62;105750;1270;98526;-82
2023/08/15 04:22:58;;;;;;;17.90;12.90;;;;;;;20.51;88.68;101003.83;105585;1270;101359;-80
2023/08/15 04:25:45;;;;;;;13.70;12.20;;;;;;;20.51;88.98;101003.87;106319;1270;99191;-81
2023/08/15 04:28:31;;;;;;;16.90;12.00;;;;;;;20.51;89.06;101005.02;105438;1270;97884;-82
2023/08/15 04:31:16;;;;;;;13.20;11.50;;;;;;;20.52;89.01;101005.26;105525;1271;97997;-80
2023/08/15 04:34:01;;;;;;;16.30;11.60;;;;;;;20.53;89.28;101002.05;105875;1270;96603;-81
2023/08/15 04:36:48;;;;;;;15.10;11.30;;;;;;;20.55;89.23;101003.40;105729;1270;102739;-80
2023/08/15 04:39:34;;;;;;;14.60;12.10;;;;;;;20.58;89.56;101006.46;105746;1270;100048;-81
2023/08/15 04:42:20;;;;;;;17.40;12.30;;;;;;;20.60;89.45;101006.68;105688;1270;98487;-80
2023/08/15 04:45:07;;;;;;;15.90;11.80;;;;;;;20.61;89.78;101006.11;105735;1269;98009;-80
2023/08/15 04:47:53;;;;;;;16.30;13.00;;;;;;;20.63;90.18;101004.02;105756;1270;98359;-80
2023/08/15 04:50:39;;;;;;;12.50;11.30;;;;;;;20.68;90.61;101002.64;105597;1271;101420;-80
2023/08/15 04:53:24;;;;;;;16.10;13.10;;;;;;;20.78;91.13;101001.09;105724;1270;99856;-81
2023/08/15 04:56:11;;;;;;;17.40;11.60;;;;;;;20.90;91.12;100998.35;105541;1268;98096;-82
2023/08/15 04:58:57;;;;;;;17.10;11.80;;;;;;;21.02;91.44;100995.77;105453;1271;98045;-81
2023/08/15 05:01:43;;;;;;;16.10;12.40;;;;;;;21.14;91.33;100997.58;105829;1270;98051;-80
2023/08/15 05:04:29;;;;;;;16.70;12.70;;;;;;;21.25;91.57;100995.81;105734;1272;102635;-78
2023/08/15 05:07:15;;;;;;;12.90;11.50;;;;;;;21.35;91.49;100993.95;105270;1273;99271;-80
2023/08/15 05:10:00;;;;;;;13.80;11.50;;;;;;;21.47;91.71;100995.13;105156;1270;97984;-81
2023/08/15 05:12:46;;;;;;;13.60;11.00;;;;;;;21.59;91.81;100998.35;105864;1271;98004;-80
2023/08/15 05:15:31;;;;;;;13.30;11.50;;;;;;;21.68;92.12;100997.30;105533;1267;98500;-80
2023/08/15 05:18:19;;;;;;;13.70;11.30;;;;;;;21.77;92.22;100996.56;105448;1270;111224;-80
2023/08/15 05:21:04;;;;;;;11.70;10.60;;;;;;;21.86;91.97;100997.53;104900;1271;99189;-80
2023/08/15 05:23:50;;;;;;;15.40;11.00;;;;;;;21.96;91.75;101002.00;105547;1268;106692;-80
2023/08/15 05:26:36;;;;;;;14.60;11.30;;;;;;;22.04;91.56;101002.48;105475;1270;97993;-80
2023/08/15 05:29:23;;;;;;;12.40;11.20;;;;;;;22.13;91.77;101004.80;105624;1269;98112;-80
2023/08/15 05:32:09;;;;;;;14.40;11.10;;;;;;;22.20;92.05;101003.20;105615;1272;103158;-81
2023/08/15 05:34:55;;;;;;;15.30;11.90;;;;;;;22.27;92.18;101005.48;105441;1273;100454;-81
2023/08/15 05:37:40;;;;;;;12.20;10.40;;;;;;;22.35;92.15;101005.64;105510;1271;97994;-80
2023/08/15 05:40:27;;;;;;;12.40;11.00;;;;;;;22.44;92.05;101006.50;105545;1270;98555;-80
2023/08/15 05:43:12;;;;;;;12.20;10.70;;;;;;;22.54;92.11;101009.02;105562;1271;98524;-81
2023/08/15 05:45:57;;;;;;;12.60;11.30;;;;;;;22.65;92.26;101009.41;105660;1270;101351;-80
2023/08/15 05:48:43;;;;;;;11.90;10.60;;;;;;;22.75;92.06;101007.06;104936;1272;100716;-80
2023/08/15 05:51:28;;;;;;;11.90;10.60;;;;;;;22.86;91.75;101010.73;105050;1272;99707;-80
2023/08/15 05:54:14;;;;;;;11.90;10.70;;;;;;;22.95;91.68;101010.38;105140;1271;98081;-80
2023/08/15 05:56:59;;;;;;;14.30;10.50;;;;;;;23.05;92.37;101007.25;105847;1273;98512;-79
2023/08/15 05:59:45;;;;;;;11.20;10.00;;;;;;;23.15;91.48;101005.38;105023;1271;101458;-79
2023/08/15 06:02:35;;;;;;;12.90;10.80;;;;;;;23.26;91.20;101008.98;105049;1271;99102;-80
2023/08/15 06:05:21;;;;;;;11.90;10.70;;;;;;;23.36;90.83;101006.14;105102;1273;98000;-80
2023/08/15 06:08:06;;;;;;;11.80;10.50;;;;;;;23.47;90.79;101001.59;105882;1268;97983;-80
2023/08/15 06:10:52;;;;;;;11.90;9.60;;;;;;;23.57;90.47;101004.18;105682;1270;98507;-80
2023/08/15 06:13:37;;;;;;;11.00;9.20;;;;;;;23.68;90.41;101006.66;105185;1271;101482;-81
2023/08/15 06:16:23;;;;;;;10.70;9.50;;;;;;;23.80;90.64;101009.42;105099;1273;100419;-80
2023/08/15 06:19:09;;;;;;;12.70;9.70;;;;;;;23.92;90.73;101007.80;105781;1270;98444;-79
2023/08/15 06:21:54;;;;;;;13.50;9.70;;;;;;;24.04;90.32;101008.11;105728;1270;98752;-79
2023/08/15 06:24:40;;;;;;;11.30;8.90;;;;;;;24.14;89.08;101009.50;105933;1269;97883;-80
2023/08/15 06:27:25;;;;;;;11.70;9.30;;;;;;;24.24;88.46;101012.66;105877;1271;102674;-80
2023/08/15 06:30:11;;;;;;;9.80;8.90;;;;;;;24.34;87.70;101012.00;105776;1272;99179;-80
2023/08/15 06:33:02;;;;;;;11.20;8.70;;;;;;;24.44;87.56;101015.87;105759;1272;98627;-79
2023/08/15 06:35:47;;;;;;;;;;;;;;;24.55;87.89;101014.77;105060;1270;98104;-79
2023/08/15 06:38:33;;;;;;;12.20;8.60;;;;;;;24.64;87.59;101016.70;105274;1273;98436;-79
2023/08/15 06:41:19;;;;;;;10.90;9.80;;;;;;;24.74;87.62;101015.40;105255;1270;102101;-79
2023/08/15 06:44:05;;;;;;;10.60;9.50;;;;;;;24.84;86.99;101015.33;105212;1270;100090;-81
2023/08/15 06:46:50;;;;;;;12.10;7.50;;;;;;;24.93;86.26;101014.41;105129;1270;98040;-78
2023/08/15 06:49:36;;;;;;;13.10;8.20;;;;;;;25.02;85.39;101018.70;105338;1273;97966;-80
2023/08/15 06:52:22;;;;;;;8.10;7.30;;;;;;;25.13;84.56;101018.61;105602;1273;97904;-80
2023/08/15 06:55:08;;;;;;;12.10;8.10;;;;;;;25.24;84.23;101018.39;105701;1273;101471;-81
2023/08/15 06:57:54;;;;;;;8.70;7.90;;;;;;;25.36;83.53;101018.83;105920;1271;99164;-80
2023/08/15 07:00:42;;;;;;;10.70;6.90;;;;;;;25.47;81.90;101018.69;105812;1271;98795;-80
2023/08/15 07:03:27;;;;;;;6.70;6.10;;;;;;;25.57;80.80;101019.63;105729;1271;96099;-81
2023/08/15 07:06:12;;;;;;;15.50;6.70;;;;;;;25.68;80.28;101020.94;105869;1273;97886;-80
2023/08/15 07:08:59;;;;;;;9.20;6.70;;;;;;;25.79;79.73;101022.35;105949;1271;102508;-81
2023/08/15 07:11:44;;;;;;;11.10;7.30;;;;;;;25.89;79.12;101026.67;105701;1275;100361;-82
2023/08/15 07:14:29;;;;;;;7.30;6.60;;;;;;;25.98;78.89;101027.80;105934;1273;98475;-80
2023/08/15 07:17:15;;;;;;;10.80;6.70;;;;;;;26.08;78.57;101030.65;105839;1269;98112;-81
2023/08/15 07:20:00;;;;;;;11.10;6.50;;;;;;;26.18;78.35;101033.99;106076;1270;98430;-81
2023/08/15 07:22:46;;;;;;;6.90;6.20;;;;;;;26.28;77.35;101034.28;105612;1271;102887;-80
2023/08/15 07:25:32;;;;;;;7.40;6.20;;;;;;;26.38;76.08;101036.39;105772;1271;100361;-81
2023/08/15 07:28:18;;;;;;;10.80;7.00;;;;;;;26.47;76.05;101032.99;105947;1272;97936;-80
2023/08/15 07:31:03;;;;;;;9.50;7.10;;;;;;;26.56;76.02;101031.31;105782;1273;97985;-81
2023/08/15 07:33:49;;;;;;;13.00;6.40;;;;;;;26.66;76.17;101033.08;105970;1271;98529;-80
2023/08/15 07:36:34;;;;;;;9.60;6.20;;;;;;;26.77;76.04;101033.54;105953;1271;102997;-81
2023/08/15 07:39:20;;;;;;;10.10;6.80;;;;;;;26.87;74.46;101034.20;106061;1271;99494;-79
2023/08/15 07:42:06;;;;;;;7.60;5.90;;;;;;;26.96;74.06;101037.35;105736;1269;98369;-81
2023/08/15 07:44:52;;;;;;;8.20;6.30;;;;;;;27.05;73.10;101038.23;105875;1271;97890;-80
2023/08/15 07:47:39;;;;;;;8.60;6.00;;;;;;;27.12;72.36;101033.48;106122;1273;97886;-79
2023/08/15 07:50:27;;;;;;;8.90;5.80;;;;;;;27.21;72.28;101027.94;105930;1271;102930;-80
2023/08/15 07:53:12;;;;;;;8.20;5.50;;;;;;;27.30;71.35;101024.34;105169;1271;99138;-79
2023/08/15 07:55:58;;;;;;;7.30;5.30;;;;;;;27.39;70.53;101026.23;105304;1272;97902;-79
2023/08/15 07:58:43;;;;;;;6.50;5.40;;;;;;;27.49;70.36;101022.62;105226;1271;97979;-80
2023/08/15 08:01:29;;;;;;;6.40;5.80;;;;;;;27.58;70.30;101018.86;105205;1273;98576;-79
2023/08/15 08:04:14;;;;;;;12.30;5.60;;;;;;;27.67;70.40;101022.56;105614;1276;101366;-80
2023/08/15 08:07:00;;;;;;;9.80;5.50;;;;;;;27.76;69.72;101019.49;105525;1274;99170;-80
2023/08/15 08:09:46;;;;;;;6.30;5.20;;;;;;;27.85;68.57;101016.71;105359;1272;97910;-80
2023/08/15 08:12:33;;;;;;;7.40;5.20;;;;;;;27.93;68.16;101015.38;105333;1268;98000;-81
2023/08/15 08:15:22;;;;;;;6.40;4.80;;;;;;;28.02;67.61;101015.90;105071;1271;97892;-79
2023/08/15 08:18:08;;;;;;;10.70;5.40;;;;;;;28.11;68.23;101015.48;105184;1270;102621;-79
2023/08/15 08:20:53;;;;;;;8.60;5.00;;;;;;;28.18;67.50;101011.09;105414;1272;100310;-80
2023/08/15 08:23:39;;;;;;;7.60;5.10;;;;;;;28.25;66.51;101009.74;105130;1276;98662;-80
2023/08/15 08:26:24;;;;;;;9.00;5.50;;;;;;;28.33;65.90;101006.56;105748;1269;96486;-79
2023/08/15 08:29:11;;;;;;;5.70;4.90;;;;;;;28.42;66.25;101007.06;105763;1271;97898;-80
2023/08/15 08:31:56;;;;;;;8.00;5.10;;;;;;;28.49;65.38;101005.80;105683;1269;102037;-80
2023/08/15 08:34:42;;;;;;;6.00;4.80;;;;;;;28.56;64.67;101000.60;105848;1268;99844;-80
2023/08/15 08:37:27;;;;;;;6.50;4.00;;;;;;;28.64;64.59;100996.71;105876;1273;98480;-81
2023/08/15 08:40:13;;;;;;;5.40;4.90;;;;;;;28.72;64.06;100993.56;105822;1270;97987;-80
2023/08/15 08:42:59;;;;;;;5.00;4.00;;;;;;;28.80;62.75;100991.01;105608;1276;97985;-80
2023/08/15 08:45:50;;;;;;;5.50;4.20;;;;;;;28.90;62.00;100992.20;105623;1270;101434;-79
2023/08/15 08:48:38;;;;;;;5.80;4.80;;;;;;;28.99;60.94;100987.98;105896;1270;99144;-79
2023/08/15 08:51:25;;;;;;;6.40;3.80;;;;;;;29.05;60.30;100989.42;105422;1270;97983;-79
2023/08/15 08:54:10;;;;;;;12.80;4.20;;;;;;;29.13;59.85;100983.02;105242;1273;99167;-80
2023/08/15 08:57:00;;;;;;;5.90;4.00;;;;;;;29.20;59.48;100978.89;105185;1272;98529;-79
2023/08/15 08:59:46;;;;;;;8.20;4.90;;;;;;;29.27;59.84;100981.81;105091;1271;101403;-80
2023/08/15 09:02:31;;;;;;;6.30;3.80;;;;;;;29.34;59.37;100982.02;105015;1268;100082;-78
2023/08/15 09:05:17;;;;;;;7.20;3.60;;;;;;;29.40;58.50;100980.26;105566;1273;98547;-79
2023/08/15 09:08:03;;;;;;;8.00;3.80;;;;;;;29.47;58.25;100980.09;105020;1271;97992;-82
2023/08/15 09:10:50;;;;;;;6.20;3.50;;;;;;;29.54;57.95;100977.92;105751;1272;98412;-78
2023/08/15 09:13:45;;;;;;;4.80;3.40;;;;;;;29.62;56.90;100980.41;105631;1273;102770;-80
2023/08/15 09:16:33;;;;;;;8.40;3.60;;;;;;;29.70;57.24;100982.16;105099;1273;99316;-79
2023/08/15 09:19:18;;;;;;;8.50;3.90;;;;;;;29.78;56.75;100982.37;105085;1271;97962;-79
2023/08/15 09:22:04;;;;;;;7.70;3.30;;;;;;;29.82;56.05;100982.73;104656;1273;98071;-80
2023/08/15 09:24:51;;;;;;;6.00;3.60;;;;;;;29.89;55.27;100981.45;104658;1271;119771;-78
2023/08/15 09:27:38;;;;;;;5.90;3.80;;;;;;;29.95;55.35;100979.73;104860;1273;102641;-79
2023/08/15 09:30:23;;;;;;;9.90;4.00;;;;;;;29.99;54.68;100978.65;104737;1274;99346;-80
2023/08/15 09:33:13;;;;;;;5.40;4.20;;;;;;;30.03;54.16;100975.91;105470;1273;97969;-80
2023/08/15 09:35:59;;;;;;;7.40;3.40;;;;;;;30.08;54.35;100974.54;105588;1271;98028;-80
2023/08/15 09:38:45;;;;;;;3.30;3.10;;;;;;;30.15;54.03;100975.72;105648;1271;97994;-79
2023/08/15 09:41:30;;;;;;;3.30;3.00;;;;;;;30.24;53.41;100975.14;105637;1273;102343;-79
2023/08/15 09:44:30;;;;;;;7.20;3.60;;;;;;;30.33;53.36;100967.95;105727;1273;100408;-80
2023/08/15 09:47:17;;;;;;;6.00;4.20;;;;;;;30.42;53.21;100969.74;105523;1273;97947;-80
2023/08/15 09:50:05;;;;;;;7.40;3.70;;;;;;;30.51;52.95;100969.34;105702;1271;97806;-80
2023/08/15 09:52:52;;;;;;;5.10;3.10;;;;;;;30.59;52.92;100968.93;105321;1271;97936;-80
2023/08/15 09:55:38;;;;;;;5.90;3.70;;;;;;;30.64;52.89;100969.38;105254;1270;101360;-80
2023/08/15 09:58:24;;;;;;;7.90;3.70;;;;;;;30.68;52.92;100967.46;106117;1273;100141;-79
2023/08/15 10:01:14;;;;;;;5.10;3.80;;;;;;;30.73;52.71;100967.34;105250;1273;99102;-80
2023/08/15 10:04:02;;;;;;;;;;;;;;;30.77;52.77;100965.27;105233;1272;97921;-81
2023/08/15 10:06:49;;;;;;;5.30;4.10;;;;;;;30.83;52.85;100962.41;105351;1270;97923;-80
2023/08/15 10:09:35;;;;;;;6.10;3.80;;;;;;;30.91;52.52;100962.45;107637;1269;102642;-82
2023/08/15 10:12:21;;;;;;;7.60;4.30;;;;;;;31.00;52.50;100963.90;107658;1271;99986;-81
2023/08/15 10:15:08;;;;;;;5.70;3.20;;;;;;;31.07;52.82;100954.67;107387;1270;98529;-78
2023/08/15 10:17:54;;;;;;;8.00;3.70;;;;;;;31.13;52.41;100953.02;107465;1272;95390;-80
2023/08/15 10:20:39;;;;;;;3.70;3.00;;;;;;;31.21;52.31;100951.59;107073;1273;98002;-79
2023/08/15 10:23:33;;;;;;;4.90;3.80;;;;;;;31.31;51.66;100955.77;104948;1274;101433;-79
2023/08/15 10:26:19;;;;;;;5.20;3.40;;;;;;;31.38;50.93;100956.14;105180;1274;99088;-80
2023/08/15 10:29:04;;;;;;;7.60;4.90;;;;;;;31.44;51.00;100956.08;105140;1270;98000;-79
2023/08/15 10:31:58;;;;;;;6.60;3.50;;;;;;;31.50;51.01;100956.52;105124;1273;97700;-80
2023/08/15 10:34:52;;;;;;;4.40;3.50;;;;;;;31.54;50.94;100953.20;107309;1268;95919;-80
2023/08/15 10:37:38;;;;;;;6.70;3.90;;;;;;;31.57;50.55;100953.50;105439;1270;102017;-80
2023/08/15 10:40:40;;;;;;;8.80;3.40;;;;;;;31.63;50.34;100946.98;105911;1270;99249;-80
2023/08/15 10:43:27;;;;;;;5.70;3.40;;;;;;;31.68;49.91;100946.28;105880;1271;97989;-81
2023/08/15 10:46:17;;;;;;;6.90;3.70;;;;;;;31.74;50.08;100946.83;105270;1272;97912;-81
2023/08/15 10:49:12;;;;;;;5.90;3.60;;;;;;;31.82;49.68;100951.56;105973;1271;98516;-79
2023/08/15 10:51:59;;;;;;;7.70;3.80;;;;;;;31.87;49.90;100952.23;106179;1270;101511;-80
2023/08/15 10:54:46;;;;;;;3.60;3.30;;;;;;;31.93;50.30;100949.76;105179;1274;100573;-79
2023/08/15 10:57:33;;;;;;;4.20;3.30;;;;;;;31.99;49.56;100948.75;106206;1271;98943;-78
2023/08/15 11:00:21;;;;;;;6.20;3.40;;;;;;;32.06;49.03;100947.86;105370;1273;97920;-78
2023/08/15 11:03:07;;;;;;;5.70;3.50;;;;;;;32.11;48.71;100945.04;105234;1272;98525;-79
2023/08/15 11:05:52;;;;;;;6.70;4.00;;;;;;;32.19;48.31;100943.69;105237;1271;103117;-79
2023/08/15 11:08:48;;;;;;;5.70;3.90;;;;;;;32.26;48.28;100944.91;104562;1270;99809;-78
2023/08/15 11:11:34;;;;;;;5.90;3.80;;;;;;;32.30;48.07;100940.13;107216;1270;97780;-79
2023/08/15 11:14:19;;;;;;;4.30;3.70;;;;;;;32.30;47.36;100943.13;107585;1273;95641;-82
2023/08/15 11:17:06;;;;;;;3.40;3.10;;;;;;;32.30;47.49;100941.40;107508;1270;95873;-82
2023/08/15 11:19:53;;;;;;;4.50;3.30;;;;;;;32.32;47.47;100940.63;107567;1269;101410;-81
2023/08/15 11:22:39;;;;;;;4.00;3.10;;;;;;;32.39;47.00;100939.98;107493;1270;100354;-81
2023/08/15 11:25:24;;;;;;;7.50;4.20;;;;;;;32.47;47.65;100939.80;105936;1273;97731;-81
2023/08/15 11:28:10;;;;;;;5.50;3.60;;;;;;;32.52;47.35;100935.52;106028;1273;97985;-82
2023/08/15 11:30:57;;;;;;;8.40;3.30;;;;;;;32.57;47.11;100934.23;106023;1271;98484;-82
2023/08/15 11:33:43;;;;;;;3.70;3.40;;;;;;;32.62;46.99;100937.55;106094;1272;101409;-82
2023/08/15 11:36:29;;;;;;;6.70;3.20;;;;;;;32.67;46.17;100936.73;105817;1268;99222;-81
2023/08/15 11:39:15;;;;;;;5.70;3.30;;;;;;;32.74;45.81;100935.80;106104;1270;97948;-81
2023/08/15 11:42:01;;;;;;;4.80;3.00;;;;;;;32.81;45.39;100936.74;106068;1270;97874;-81
2023/08/15 11:44:46;;;;;;;4.80;3.20;;;;;;;32.85;44.14;100933.21;106053;1270;98372;-82
2023/08/15 11:47:32;;;;;;;5.70;3.80;;;;;;;32.89;43.61;100928.48;106028;1269;101379;-82
2023/08/15 11:50:20;;;;;;;6.80;3.10;;;;;;;32.95;43.45;100932.39;106102;1271;100114;-82
2023/08/15 11:53:11;;;;;;;6.90;3.50;;;;;;;32.99;42.96;100929.52;105871;1271;97897;-82
2023/08/15 11:55:56;;;;;;;6.00;3.30;;;;;;;33.00;42.68;100924.48;105947;1273;95876;-81
2023/08/15 11:58:42;;;;;;;4.90;2.80;;;;;;;33.01;42.95;100919.57;106077;1271;97886;-81
2023/08/15 12:01:27;;;;;;;4.90;3.00;;;;;;;33.04;43.39;100918.84;106063;1271;101975;-81
2023/08/15 12:04:13;;;;;;;6.30;3.40;;;;;;;33.11;43.53;100917.61;105914;1273;99194;-81
2023/08/15 12:06:58;;;;;;;3.90;2.80;;;;;;;33.16;42.85;100916.27;105754;1274;97955;-81
2023/08/15 12:09:43;;;;;;;6.00;2.30;;;;;;;33.20;41.99;100915.41;105826;1270;97976;-80
2023/08/15 12:12:29;;;;;;;2.80;2.60;;;;;;;33.20;41.97;100911.21;106055;1273;97969;-81
2023/08/15 12:15:15;;;;;;;6.10;2.50;;;;;;;33.23;41.80;100905.36;106096;1270;102673;-81
2023/08/15 12:18:01;;;;;;;3.80;2.80;;;;;;;33.29;41.75;100904.30;106070;1272;99112;-81
2023/08/15 12:20:47;;;;;;;4.80;2.40;;;;;;;33.36;41.42;100904.11;106088;1272;98340;-81
2023/08/15 12:23:33;;;;;;;6.70;2.70;;;;;;;33.40;41.13;100903.83;105964;1273;97935;-81
2023/08/15 12:26:18;;;;;;;5.90;2.60;;;;;;;33.48;40.78;100904.00;105752;1273;97991;-80
2023/08/15 12:29:03;;;;;;;3.50;2.30;;;;;;;33.54;40.41;100898.34;105990;1270;101407;-82
2023/08/15 12:31:49;;;;;;;5.80;2.50;;;;;;;33.57;40.36;100898.55;105990;1271;100378;-80
2023/08/15 12:34:35;;;;;;;3.60;2.20;;;;;;;33.60;39.86;100901.79;105808;1272;98438;-79